This is the latest recevied weather packets stored in our database for station/object F1ZFG-13. If no packets are shown the sender has not sent any weather packets the latest 10 day(s).
| Time | Temp. | Humidity | Pressure | Rain* | Wind** | Luminosity | Snow |
|---|---|---|---|---|---|---|---|
| 1777636171 | 21.67° C | 43% | 1022.8 hPa | 0 mm | - | - | - |
| 1777633196 | 20.56° C | 50% | 1023.3 hPa | 0 mm | - | - | - |
| 1777630322 | 20.56° C | 50% | 1023.3 hPa | 0 mm | - | - | - |
| 1777627296 | 18.33° C | 59% | 1023.4 hPa | 0 mm | - | - | - |
| 1777624132 | 16.11° C | 67% | 1023.4 hPa | 0 mm | - | - | - |
| 1777621235 | 14.44° C | 76% | 1023.5 hPa | 0 mm | - | - | - |
| 1777618044 | 12.22° C | 84% | 1023.1 hPa | 0 mm | - | - | - |
| 1777614783 | 10.56° C | 90% | 1022.7 hPa | 0 mm | - | - | - |
| 1777611408 | 10.56° C | 90% | 1022.1 hPa | 0 mm | - | - | - |
| 1777608019 | 10.56° C | 90% | 1022.1 hPa | 0 mm | - | - | - |
| 1777604448 | 10.56° C | 88% | 1021.8 hPa | 0 mm | - | - | - |
| 1777601126 | 11.11° C | 85% | 1021.8 hPa | 0 mm | - | - | - |
| 1777598122 | 11.67° C | 82% | 1021.8 hPa | 0 mm | - | - | - |
| 1777595156 | 12.78° C | 78% | 1021.6 hPa | 0 mm | - | - | - |
| 1777591916 | 13.33° C | 74% | 1021.5 hPa | 0 mm | - | - | - |
| 1777588682 | 14.44° C | 71% | 1021 hPa | 0 mm | - | - | - |
| 1777585525 | 15.56° C | 68% | 1020.6 hPa | 0 mm | - | - | - |
| 1777582523 | 16.67° C | 61% | 1020 hPa | 0 mm | - | - | - |
| 1777579481 | 16.67° C | 61% | 1020 hPa | 0 mm | - | - | - |
| 1777576488 | 18.33° C | 58% | 1018.5 hPa | 0 mm | - | - | - |
| 1777573366 | 20° C | 47% | 1017.9 hPa | 0 mm | - | - | - |
| 1777570028 | 21.11° C | 39% | 1017.3 hPa | 0 mm | - | - | - |
| 1777566552 | 22.22° C | 34% | 1016.9 hPa | 0 mm | - | - | - |
| 1777563296 | 23.33° C | 34% | 1016.7 hPa | 0 mm | - | - | - |
| 1777560085 | 23.33° C | 34% | 1016.9 hPa | 0 mm | - | - | - |
* Rain latest hour (hover to see other rain measurements)
** Current wind speed in m/s (hover to see current wind gust speed)